createdAt,value
2018-07-03T00:00:45.492Z,44.77
2018-07-03T00:01:45.502Z,44.97
2018-07-03T00:02:45.470Z,45.17
2018-07-03T00:03:45.459Z,45.07
2018-07-03T00:04:45.486Z,44.97
2018-07-03T00:05:45.438Z,44.48
2018-07-03T00:06:45.429Z,44.87
2018-07-03T00:07:45.415Z,44.97
2018-07-03T00:08:45.404Z,44.97
2018-07-03T00:09:45.413Z,45.17
2018-07-03T00:10:45.397Z,44.97
2018-07-03T00:11:45.372Z,45.07
2018-07-03T00:12:45.362Z,44.87
2018-07-03T00:13:45.351Z,44.97
2018-07-03T00:14:45.358Z,44.67
2018-07-03T00:15:45.329Z,45.07
2018-07-03T00:16:45.336Z,45.09
2018-07-03T00:17:45.307Z,45.07
2018-07-03T00:18:45.295Z,44.97
2018-07-03T00:19:45.305Z,44.87
2018-07-03T00:20:45.274Z,44.77
2018-07-03T00:21:45.266Z,44.97
2018-07-03T00:22:45.271Z,44.87
2018-07-03T00:23:45.243Z,45.09
2018-07-03T00:24:45.251Z,45.09
2018-07-03T00:25:45.219Z,44.89
2018-07-03T00:26:45.212Z,44.79
2018-07-03T00:27:45.197Z,44.89
2018-07-03T00:28:45.200Z,45.09
2018-07-03T00:29:45.198Z,44.89
2018-07-03T00:30:45.170Z,45.09
2018-07-03T00:31:45.166Z,44.89
2018-07-03T00:32:45.149Z,44.79
2018-07-03T00:33:45.133Z,44.89
2018-07-03T00:34:45.167Z,44.79
2018-07-03T00:35:45.113Z,44.79
2018-07-03T00:36:45.100Z,44.79
2018-07-03T00:37:45.089Z,44.79
2018-07-03T00:38:45.078Z,44.99
2018-07-03T00:39:45.089Z,44.79
2018-07-03T00:40:45.069Z,44.79
2018-07-03T00:41:45.048Z,44.77
2018-07-03T00:42:45.037Z,44.79
2018-07-03T00:43:45.029Z,44.89
2018-07-03T00:44:45.034Z,44.79
2018-07-03T00:45:45.009Z,44.79
2018-07-03T00:46:44.992Z,44.77
2018-07-03T00:47:44.980Z,44.79
2018-07-03T00:48:44.968Z,44.89
2018-07-03T00:49:44.979Z,44.79
2018-07-03T00:50:44.948Z,44.89
2018-07-03T00:51:44.949Z,44.79
2018-07-03T00:52:44.927Z,44.79
2018-07-03T00:53:44.915Z,44.89
2018-07-03T00:54:44.932Z,45.09
2018-07-03T00:55:44.892Z,44.89
2018-07-03T00:56:44.884Z,44.89
2018-07-03T00:57:44.889Z,44.99
2018-07-03T00:58:44.861Z,44.70
2018-07-03T00:59:44.871Z,44.99
2018-07-03T01:00:44.838Z,44.99
2018-07-03T01:01:44.829Z,44.79
2018-07-03T01:02:44.816Z,44.99
2018-07-03T01:03:44.818Z,44.89
2018-07-03T01:04:44.816Z,44.89
2018-07-03T01:05:44.785Z,44.49
2018-07-03T01:06:44.773Z,45.19
2018-07-03T01:07:44.764Z,44.79
2018-07-03T01:08:44.750Z,44.59
2018-07-03T01:09:44.783Z,45.19
2018-07-03T01:10:44.730Z,44.59
2018-07-03T01:11:44.719Z,44.99
2018-07-03T01:12:44.706Z,44.49
2018-07-03T01:13:44.699Z,45.19
2018-07-03T01:14:44.706Z,44.99
2018-07-03T01:15:44.698Z,44.89
2018-07-03T01:16:44.664Z,44.99
2018-07-03T01:17:44.653Z,45.68
2018-07-03T01:18:44.641Z,44.99
2018-07-03T01:19:44.651Z,44.79
2018-07-03T01:20:44.627Z,44.49
2018-07-03T01:21:44.626Z,44.89
2018-07-03T01:22:44.600Z,44.49
2018-07-03T01:23:44.589Z,44.89
2018-07-03T01:24:44.598Z,44.70
2018-07-03T01:25:44.567Z,44.99
2018-07-03T01:26:44.555Z,44.99
2018-07-03T01:27:44.558Z,44.59
2018-07-03T01:28:44.533Z,44.40
2018-07-03T01:29:44.542Z,44.70
2018-07-03T01:30:44.512Z,44.59
2018-07-03T01:31:44.501Z,44.89
2018-07-03T01:32:44.490Z,44.59
2018-07-03T01:33:44.499Z,44.79
2018-07-03T01:34:44.492Z,44.99
2018-07-03T01:35:44.458Z,44.59
2018-07-03T01:36:44.452Z,44.89
2018-07-03T01:37:44.437Z,44.79
2018-07-03T01:38:44.429Z,45.68
2018-07-03T01:39:44.450Z,44.89
2018-07-03T01:40:44.402Z,44.99
2018-07-03T01:41:44.394Z,45.49
2018-07-03T01:42:44.380Z,44.99
2018-07-03T01:43:44.370Z,45.79
2018-07-03T01:44:44.380Z,44.89
2018-07-03T01:45:44.370Z,44.70
2018-07-03T01:46:44.338Z,45.09
2018-07-03T01:47:44.328Z,45.68
2018-07-03T01:48:44.316Z,45.79
2018-07-03T01:49:44.316Z,44.79
2018-07-03T01:50:44.314Z,44.99
2018-07-03T01:51:44.296Z,45.79
2018-07-03T01:52:44.274Z,45.79
2018-07-03T01:53:44.268Z,45.41
2018-07-03T01:54:44.256Z,44.79
2018-07-03T01:55:44.261Z,45.59
2018-07-03T01:56:44.228Z,45.89
2018-07-03T01:57:44.236Z,45.79
2018-07-03T01:58:44.206Z,45.79
2018-07-03T01:59:44.196Z,44.79
2018-07-03T02:00:44.206Z,45.59
2018-07-03T02:01:44.173Z,45.19
2018-07-03T02:02:44.208Z,45.89
2018-07-03T02:03:44.164Z,45.89
2018-07-03T02:04:44.147Z,45.79
2018-07-03T02:05:44.155Z,45.49
2018-07-03T02:06:44.121Z,44.79
2018-07-03T02:07:44.109Z,45.68
2018-07-03T02:08:44.097Z,45.90
2018-07-03T02:09:44.098Z,44.99
2018-07-03T02:10:44.097Z,45.51
2018-07-03T02:11:44.066Z,45.51
2018-07-03T02:12:44.058Z,45.51
2018-07-03T02:13:44.042Z,45.51
2018-07-03T02:14:44.050Z,45.90
2018-07-03T02:15:44.042Z,45.79
2018-07-03T02:16:44.010Z,45.41
2018-07-03T02:17:43.999Z,45.41
2018-07-03T02:18:43.990Z,45.79
2018-07-03T02:19:43.980Z,45.39
2018-07-03T02:20:44.018Z,45.90
2018-07-03T02:21:43.957Z,45.90
2018-07-03T02:22:43.950Z,45.41
2018-07-03T02:23:43.934Z,45.71
2018-07-03T02:24:43.923Z,45.51
2018-07-03T02:25:43.935Z,45.51
2018-07-03T02:26:43.920Z,45.61
2018-07-03T02:27:43.894Z,45.31
2018-07-03T02:28:43.883Z,45.41
2018-07-03T02:29:43.872Z,45.81
2018-07-03T02:30:43.880Z,45.41
2018-07-03T02:31:43.850Z,45.29
2018-07-03T02:32:43.871Z,45.51
2018-07-03T02:33:43.826Z,45.39
2018-07-03T02:34:43.820Z,45.79
2018-07-03T02:35:43.804Z,45.81
2018-07-03T02:36:43.796Z,46.08
2018-07-03T02:37:43.805Z,45.31
2018-07-03T02:38:43.789Z,46.08
2018-07-03T02:39:43.762Z,45.29
2018-07-03T02:40:43.751Z,45.81
2018-07-03T02:41:43.740Z,45.51
2018-07-03T02:42:43.749Z,45.81
2018-07-03T02:43:43.717Z,45.81
2018-07-03T02:44:43.718Z,46.11
2018-07-03T02:45:43.693Z,45.81
2018-07-03T02:46:43.687Z,45.31
2018-07-03T02:47:43.697Z,46.11
2018-07-03T02:48:43.663Z,45.90
2018-07-03T02:49:43.655Z,45.81
2018-07-03T02:50:43.662Z,45.61
2018-07-03T02:51:43.632Z,46.20
2018-07-03T02:52:43.642Z,45.61
2018-07-03T02:53:43.608Z,45.90
2018-07-03T02:54:43.595Z,45.61
2018-07-03T02:55:43.587Z,45.81
2018-07-03T02:56:43.592Z,45.90
2018-07-03T02:57:43.587Z,45.61
2018-07-03T02:58:43.553Z,45.61
2018-07-03T02:59:43.545Z,45.81
2018-07-03T03:00:43.532Z,45.61
2018-07-03T03:01:43.524Z,45.61
2018-07-03T03:02:43.548Z,45.51
2018-07-03T03:03:43.501Z,45.90
2018-07-03T03:04:43.489Z,45.81
2018-07-03T03:05:43.478Z,45.61
2018-07-03T03:06:43.468Z,45.61
2018-07-03T03:07:43.474Z,45.61
2018-07-03T03:08:43.459Z,45.61
2018-07-03T03:09:43.434Z,45.61
2018-07-03T03:10:43.425Z,45.61
2018-07-03T03:11:43.412Z,45.61
2018-07-03T03:12:43.426Z,45.81
2018-07-03T03:13:43.390Z,45.81
2018-07-03T03:14:43.392Z,45.81
2018-07-03T03:15:43.369Z,45.51
2018-07-03T03:16:43.359Z,45.81
2018-07-03T03:17:43.368Z,45.51
2018-07-03T03:18:43.335Z,45.81
2018-07-03T03:19:43.326Z,45.51
2018-07-03T03:20:43.326Z,45.61
2018-07-03T03:21:43.303Z,45.41
2018-07-03T03:22:43.315Z,45.61
2018-07-03T03:23:43.303Z,45.61
2018-07-03T03:24:43.270Z,45.61
2018-07-03T03:25:43.259Z,45.71
2018-07-03T03:26:43.266Z,45.71
2018-07-03T03:27:43.237Z,45.71
2018-07-03T03:28:43.247Z,45.71
2018-07-03T03:29:43.214Z,45.41
2018-07-03T03:30:43.212Z,45.81
2018-07-03T03:31:43.191Z,45.81
2018-07-03T03:32:43.196Z,45.61
2018-07-03T03:33:43.193Z,45.81
2018-07-03T03:34:43.161Z,45.71
2018-07-03T03:35:43.153Z,45.41
2018-07-03T03:36:43.141Z,45.61
2018-07-03T03:37:43.129Z,45.81
2018-07-03T03:38:43.154Z,45.41
2018-07-03T03:39:43.106Z,45.81
2018-07-03T03:40:43.096Z,45.81
2018-07-03T03:41:43.084Z,45.81
2018-07-03T03:42:43.073Z,45.51
2018-07-03T03:43:43.083Z,45.81
2018-07-03T03:44:43.067Z,45.90
2018-07-03T03:45:43.044Z,45.61
2018-07-03T03:46:43.032Z,45.81
2018-07-03T03:47:43.022Z,45.81
2018-07-03T03:48:43.030Z,45.41
2018-07-03T03:49:42.999Z,45.41
2018-07-03T03:50:43.008Z,45.81
2018-07-03T03:51:42.975Z,45.61
2018-07-03T03:52:42.967Z,45.41
2018-07-03T03:53:43.020Z,45.21
2018-07-03T03:54:42.942Z,45.41
2018-07-03T03:55:42.935Z,45.51
2018-07-03T03:56:42.950Z,45.41
2018-07-03T03:57:42.911Z,45.71
2018-07-03T03:58:42.919Z,45.31
2018-07-03T03:59:42.889Z,45.81
2018-07-03T04:00:42.880Z,45.51
2018-07-03T04:01:42.867Z,45.41
2018-07-03T04:02:42.870Z,45.41
2018-07-03T04:03:42.865Z,45.31
2018-07-03T04:04:42.835Z,45.81
2018-07-03T04:05:42.823Z,45.41
2018-07-03T04:06:42.814Z,45.83
2018-07-03T04:07:42.803Z,46.20
2018-07-03T04:08:42.839Z,46.03
2018-07-03T04:09:42.782Z,45.71
2018-07-03T04:10:42.774Z,46.01
2018-07-03T04:11:42.759Z,45.71
2018-07-03T04:12:42.747Z,45.41
2018-07-03T04:13:42.757Z,45.71
2018-07-03T04:14:42.726Z,46.03
2018-07-03T04:15:42.743Z,45.83
2018-07-03T04:16:42.702Z,46.31
2018-07-03T04:17:42.692Z,46.03
2018-07-03T04:18:42.701Z,45.73
2018-07-03T04:19:42.674Z,45.83
2018-07-03T04:20:42.662Z,46.03
2018-07-03T04:21:42.674Z,45.83
2018-07-03T04:22:42.640Z,45.81
2018-07-03T04:23:42.656Z,46.13
2018-07-03T04:24:42.616Z,45.73
2018-07-03T04:25:42.607Z,46.01
2018-07-03T04:26:42.593Z,46.03
2018-07-03T04:27:42.594Z,45.71
2018-07-03T04:28:42.591Z,45.90
2018-07-03T04:29:42.564Z,45.83
2018-07-03T04:30:42.550Z,45.93
2018-07-03T04:31:42.539Z,46.03
2018-07-03T04:32:42.528Z,46.03
2018-07-03T04:33:42.562Z,45.93
2018-07-03T04:34:42.507Z,46.03
2018-07-03T04:35:42.496Z,46.03
2018-07-03T04:36:42.485Z,46.03
2018-07-03T04:37:42.474Z,45.93
2018-07-03T04:38:43.071Z,46.13
2018-07-03T04:39:42.456Z,46.03
2018-07-03T04:40:42.440Z,46.03
2018-07-03T04:41:42.448Z,46.23
2018-07-03T04:42:42.420Z,45.71
2018-07-03T04:43:42.429Z,45.83
2018-07-03T04:44:42.414Z,45.93
2018-07-03T04:45:42.386Z,46.23
2018-07-03T04:46:42.379Z,46.03
2018-07-03T04:47:42.365Z,45.73
2018-07-03T04:48:42.375Z,45.83
2018-07-03T04:49:42.378Z,45.83
2018-07-03T04:50:42.335Z,45.73
2018-07-03T04:51:42.325Z,45.73
2018-07-03T04:52:42.312Z,45.83
2018-07-03T04:53:43.066Z,45.93
2018-07-03T04:54:42.290Z,46.13
2018-07-03T04:55:42.308Z,45.73
2018-07-03T04:56:42.268Z,45.93
2018-07-03T04:57:42.255Z,45.93
2018-07-03T04:58:42.263Z,45.73
2018-07-03T04:59:42.233Z,45.93
2018-07-03T05:00:42.223Z,45.63
2018-07-03T05:01:42.230Z,45.93
2018-07-03T05:02:42.204Z,46.13
2018-07-03T05:03:42.211Z,45.73
2018-07-03T05:04:42.181Z,46.23
2018-07-03T05:05:42.172Z,45.63
2018-07-03T05:06:42.159Z,46.13
2018-07-03T05:07:42.159Z,46.42
2018-07-03T05:08:45.570Z,45.63
2018-07-03T05:09:42.124Z,45.73
2018-07-03T05:10:42.116Z,45.93
2018-07-03T05:11:42.104Z,45.63
2018-07-03T05:12:42.095Z,45.83
2018-07-03T05:13:42.118Z,45.83
2018-07-03T05:14:42.090Z,46.33
2018-07-03T05:15:42.058Z,46.62
2018-07-03T05:16:42.049Z,44.14
2018-07-03T05:17:42.037Z,44.14
2018-07-03T05:18:42.026Z,43.76
2018-07-03T05:19:42.036Z,44.28
2018-07-03T05:20:42.022Z,44.01
2018-07-03T05:21:41.994Z,44.70
2018-07-03T05:22:41.983Z,44.32
2018-07-03T05:23:41.970Z,45.12
2018-07-03T05:24:42.041Z,45.94
2018-07-03T05:25:41.950Z,45.86
2018-07-03T05:26:41.959Z,45.76
2018-07-03T05:27:41.928Z,44.96
2018-07-03T05:28:41.922Z,45.29
2018-07-03T05:29:41.925Z,45.59
2018-07-03T05:30:41.895Z,45.81
2018-07-03T05:31:41.984Z,46.01
2018-07-03T05:32:41.883Z,46.31
2018-07-03T05:33:41.862Z,45.81
2018-07-03T05:34:41.875Z,45.01
2018-07-03T05:35:41.841Z,45.90
2018-07-03T05:36:41.831Z,45.03
2018-07-03T05:37:41.818Z,45.83
2018-07-03T05:38:41.816Z,46.03
2018-07-03T05:39:41.818Z,45.93
2018-07-03T05:40:41.787Z,46.05
2018-07-03T05:41:41.775Z,45.65
2018-07-03T05:42:41.765Z,46.05
2018-07-03T05:43:41.758Z,46.45
2018-07-03T05:44:41.784Z,45.75
2018-07-03T05:45:41.732Z,45.95
2018-07-03T05:46:41.721Z,46.77
2018-07-03T05:47:41.710Z,46.77
2018-07-03T05:48:41.701Z,46.87
2018-07-03T05:49:41.710Z,46.57
2018-07-03T05:50:41.691Z,47.37
2018-07-03T05:51:41.668Z,47.07
2018-07-03T05:52:41.656Z,46.69
2018-07-03T05:53:41.651Z,46.59
2018-07-03T05:54:41.682Z,47.49
2018-07-03T05:55:41.625Z,46.50
2018-07-03T05:56:41.633Z,47.30
2018-07-03T05:57:41.601Z,47.39
2018-07-03T05:58:41.592Z,47.11
2018-07-03T05:59:41.598Z,46.44
2018-07-03T06:00:41.568Z,45.16
2018-07-03T06:01:41.651Z,46.16
2018-07-03T06:02:41.546Z,46.28
2018-07-03T06:03:41.547Z,45.88
2018-07-03T06:04:41.718Z,47.58
2018-07-03T06:05:41.515Z,46.78
2018-07-03T06:06:41.526Z,45.40
2018-07-03T06:07:41.525Z,47.61
2018-07-03T06:08:41.485Z,46.23
2018-07-03T06:09:41.493Z,47.43
2018-07-03T06:10:41.468Z,47.23
2018-07-03T06:11:41.482Z,46.03
2018-07-03T06:12:41.435Z,46.53
2018-07-03T06:13:41.424Z,46.23
2018-07-03T06:14:41.437Z,47.63
2018-07-03T06:15:41.447Z,47.53
2018-07-03T06:16:41.391Z,47.03
2018-07-03T06:17:41.404Z,46.62
2018-07-03T06:18:41.370Z,45.42
2018-07-03T06:19:41.384Z,46.23
2018-07-03T06:20:41.377Z,46.12
2018-07-03T06:21:41.337Z,46.95
2018-07-03T06:22:41.381Z,47.65
2018-07-03T06:23:41.313Z,47.83
2018-07-03T06:24:41.369Z,47.43
2018-07-03T06:25:41.304Z,46.42
2018-07-03T06:26:41.282Z,46.25
2018-07-03T06:27:41.309Z,46.23
2018-07-03T06:28:41.276Z,46.33
2018-07-03T06:29:41.272Z,46.62
2018-07-03T06:30:41.245Z,46.23
2018-07-03T06:31:41.228Z,46.62
2018-07-03T06:32:41.233Z,45.30
2018-07-03T06:33:41.204Z,45.83
2018-07-03T06:34:41.214Z,44.82
2018-07-03T06:35:41.183Z,47.03
2018-07-03T06:36:41.182Z,46.12
2018-07-03T06:37:41.227Z,46.53
2018-07-03T06:38:41.244Z,46.65
2018-07-03T06:39:41.161Z,45.14
2018-07-03T06:40:41.138Z,45.25
2018-07-03T06:41:41.118Z,46.03
2018-07-03T06:42:41.104Z,45.54
2018-07-03T06:43:41.103Z,45.25
2018-07-03T06:44:41.127Z,46.42
2018-07-03T06:45:41.114Z,47.13
2018-07-03T06:46:41.061Z,47.33
2018-07-03T06:47:41.050Z,46.23
2018-07-03T06:48:41.048Z,46.93
2018-07-03T06:49:41.048Z,45.72
2018-07-03T06:50:41.016Z,46.73
2018-07-03T06:51:41.117Z,46.73
2018-07-03T06:52:40.996Z,45.53
2018-07-03T06:53:41.004Z,45.30
2018-07-03T06:54:40.996Z,45.30
2018-07-03T06:55:40.971Z,45.40
2018-07-03T06:56:40.964Z,46.70
2018-07-03T06:57:40.941Z,45.40
2018-07-03T06:58:40.929Z,46.20
2018-07-03T06:59:40.978Z,46.38
2018-07-03T07:00:40.906Z,45.28
2018-07-03T07:01:40.896Z,45.28
2018-07-03T07:02:40.893Z,44.48
2018-07-03T07:03:40.874Z,44.58
2018-07-03T07:04:40.861Z,43.98
2018-07-03T07:05:40.873Z,45.38
2018-07-03T07:06:40.930Z,44.46
2018-07-03T07:07:40.830Z,45.18
2018-07-03T07:08:40.866Z,45.66
2018-07-03T07:09:40.826Z,45.06
2018-07-03T07:10:40.919Z,44.76
2018-07-03T07:11:40.788Z,45.04
2018-07-03T07:12:40.778Z,44.84
2018-07-03T07:13:42.348Z,44.93
2018-07-03T07:14:40.751Z,45.34
2018-07-03T07:15:40.760Z,45.84
2018-07-03T07:16:40.741Z,46.62
2018-07-03T07:17:40.719Z,44.21
2018-07-03T07:18:40.713Z,45.72
2018-07-03T07:19:40.700Z,45.00
2018-07-03T07:20:40.706Z,43.49
2018-07-03T07:21:40.675Z,45.20
2018-07-03T07:22:40.669Z,44.70
2018-07-03T07:23:40.655Z,45.00
2018-07-03T07:24:40.649Z,44.70
2018-07-03T07:25:40.655Z,43.99
2018-07-03T07:26:40.630Z,43.09
2018-07-03T07:27:40.609Z,41.80
2018-07-03T07:28:40.599Z,42.10
2018-07-03T07:29:40.591Z,43.29
2018-07-03T07:30:40.599Z,42.90
2018-07-03T07:31:40.570Z,44.49
2018-07-03T07:32:40.554Z,44.29
2018-07-03T07:33:40.564Z,44.39
2018-07-03T07:34:40.533Z,45.09
2018-07-03T07:35:40.544Z,43.29
2018-07-03T07:36:40.509Z,43.49
2018-07-03T07:37:40.502Z,44.89
2018-07-03T07:38:40.488Z,43.59
2018-07-03T07:39:40.494Z,42.40
2018-07-03T07:40:40.486Z,43.59
2018-07-03T07:41:40.460Z,44.09
2018-07-03T07:42:40.467Z,43.90
2018-07-03T07:43:40.433Z,43.29
2018-07-03T07:44:40.423Z,43.99
2018-07-03T07:45:40.481Z,44.09
2018-07-03T07:46:40.405Z,43.70
2018-07-03T07:47:40.391Z,44.49
2018-07-03T07:48:40.436Z,43.99
2018-07-03T07:49:40.379Z,43.48
2018-07-03T07:50:40.377Z,43.87
2018-07-03T07:51:40.344Z,42.69
2018-07-03T07:52:40.336Z,42.99
2018-07-03T07:53:40.352Z,42.47
2018-07-03T07:54:40.311Z,43.18
2018-07-03T07:55:40.322Z,42.87
2018-07-03T07:56:40.334Z,41.97
2018-07-03T07:57:40.281Z,43.48
2018-07-03T07:58:40.269Z,43.57
2018-07-03T07:59:40.257Z,42.87
2018-07-03T08:00:40.266Z,41.88
2018-07-03T08:01:40.234Z,43.07
2018-07-03T08:02:40.287Z,43.45
2018-07-03T08:03:40.223Z,43.65
2018-07-03T08:04:40.201Z,43.83
2018-07-03T08:05:40.226Z,43.53
2018-07-03T08:06:40.193Z,43.83
2018-07-03T08:07:40.170Z,43.43
2018-07-03T08:08:40.159Z,43.43
2018-07-03T08:09:40.186Z,43.93
2018-07-03T08:10:40.166Z,43.71
2018-07-03T08:11:40.123Z,43.11
2018-07-03T08:12:40.113Z,43.11
2018-07-03T08:13:40.128Z,43.01
2018-07-03T08:14:40.094Z,43.21
2018-07-03T08:15:40.101Z,43.19
2018-07-03T08:16:40.070Z,43.39
2018-07-03T08:17:40.122Z,43.09
2018-07-03T08:18:40.061Z,43.19
2018-07-03T08:19:40.035Z,43.47
2018-07-03T08:20:41.043Z,43.59
2018-07-03T08:21:40.013Z,43.67
2018-07-03T08:22:40.004Z,43.87
2018-07-03T08:23:40.132Z,43.17
2018-07-03T08:24:39.983Z,43.47
2018-07-03T08:25:39.997Z,43.65
2018-07-03T08:26:39.971Z,42.95
2018-07-03T08:27:39.948Z,43.15
2018-07-03T08:28:39.938Z,42.95
2018-07-03T08:29:39.928Z,43.85
2018-07-03T08:30:39.981Z,42.85
2018-07-03T08:31:39.916Z,43.25
2018-07-03T08:32:39.902Z,43.43
2018-07-03T08:33:39.909Z,43.05
2018-07-03T08:34:39.871Z,43.13
2018-07-03T08:35:39.880Z,43.43
2018-07-03T08:36:39.873Z,43.63
2018-07-03T08:37:39.869Z,43.03
2018-07-03T08:38:39.842Z,43.63
2018-07-03T08:39:39.819Z,43.23
2018-07-03T08:40:39.813Z,43.73
2018-07-03T08:41:39.820Z,43.03
2018-07-03T08:42:39.785Z,43.52
2018-07-03T08:43:39.787Z,43.41
2018-07-03T08:44:39.770Z,43.60
2018-07-03T08:45:39.753Z,43.52
2018-07-03T08:46:39.759Z,43.71
2018-07-03T08:47:39.761Z,43.21
2018-07-03T08:48:39.730Z,43.21
2018-07-03T08:49:39.755Z,43.51
2018-07-03T08:50:39.700Z,43.33
2018-07-03T08:51:39.727Z,43.30
2018-07-03T08:52:39.675Z,43.71
2018-07-03T08:53:39.669Z,43.71
2018-07-03T08:54:39.652Z,43.60
2018-07-03T08:55:39.664Z,43.71
2018-07-03T08:56:39.661Z,43.71
2018-07-03T08:57:39.626Z,43.41
2018-07-03T08:58:39.607Z,43.80
2018-07-03T08:59:39.596Z,43.71
2018-07-03T09:00:39.608Z,43.38
2018-07-03T09:01:39.595Z,43.68
2018-07-03T09:02:39.567Z,43.29
2018-07-03T09:03:39.597Z,43.49
2018-07-03T09:04:39.581Z,43.68
2018-07-03T09:05:39.533Z,43.49
2018-07-03T09:06:39.546Z,42.69
2018-07-03T09:07:39.509Z,41.00
2018-07-03T09:08:39.500Z,41.60
2018-07-03T09:09:39.502Z,41.20
2018-07-03T09:10:39.480Z,40.80
2018-07-03T09:11:39.489Z,41.30
2018-07-03T09:12:39.454Z,41.30
2018-07-03T09:13:39.448Z,42.09
2018-07-03T09:14:39.432Z,41.69
2018-07-03T09:15:39.450Z,41.60
2018-07-03T09:16:39.462Z,40.40
2018-07-03T09:17:39.497Z,40.68
2018-07-03T09:18:39.394Z,40.38
2018-07-03T09:19:39.378Z,39.89
2018-07-03T09:20:39.367Z,40.48
2018-07-03T09:21:39.409Z,39.89
2018-07-03T09:22:39.361Z,41.09
2018-07-03T09:23:39.375Z,40.68
2018-07-03T09:24:39.324Z,41.17
2018-07-03T09:25:39.333Z,40.40
2018-07-03T09:26:39.370Z,40.38
2018-07-03T09:27:39.293Z,40.68
2018-07-03T09:28:39.280Z,40.90
2018-07-03T09:29:39.285Z,40.00
2018-07-03T09:30:39.289Z,39.98
2018-07-03T09:31:39.268Z,40.48
2018-07-03T09:32:39.238Z,39.48
2018-07-03T09:33:39.436Z,39.78
2018-07-03T09:34:39.217Z,39.89
2018-07-03T09:35:39.206Z,39.48
2018-07-03T09:36:39.214Z,39.89
2018-07-03T09:37:39.238Z,39.59
2018-07-03T09:38:39.176Z,39.39
2018-07-03T09:39:39.167Z,39.59
2018-07-03T09:40:39.363Z,40.18
2018-07-03T09:41:39.181Z,39.39
2018-07-03T09:42:39.127Z,40.08
2018-07-03T09:43:39.115Z,40.38
2018-07-03T09:44:39.108Z,39.69
2018-07-03T09:45:39.096Z,39.18
2018-07-03T09:46:39.119Z,39.98
2018-07-03T09:47:39.079Z,39.69
2018-07-03T09:48:39.062Z,39.89
2018-07-03T09:49:39.062Z,38.79
2018-07-03T09:50:39.042Z,39.18
2018-07-03T09:51:39.057Z,38.89
2018-07-03T09:52:39.017Z,37.79
2018-07-03T09:53:39.008Z,39.09
2018-07-03T09:54:39.014Z,38.20
2018-07-03T09:55:39.001Z,38.69
2018-07-03T09:56:39.001Z,38.89
2018-07-03T09:57:39.013Z,38.79
2018-07-03T09:58:38.973Z,38.49
2018-07-03T09:59:38.944Z,39.29
2018-07-03T10:00:38.934Z,38.99
2018-07-03T10:01:38.979Z,37.99
2018-07-03T10:02:38.914Z,38.79
2018-07-03T10:03:38.922Z,39.18
2018-07-03T10:04:38.888Z,38.69
2018-07-03T10:05:38.880Z,39.09
2018-07-03T10:06:38.885Z,38.79
2018-07-03T10:07:38.995Z,39.29
2018-07-03T10:08:38.844Z,38.99
2018-07-03T10:09:39.062Z,38.69
2018-07-03T10:10:38.821Z,38.99
2018-07-03T10:11:38.845Z,38.67
2018-07-03T10:12:38.809Z,38.07
2018-07-03T10:13:38.804Z,38.20
2018-07-03T10:14:38.779Z,38.87
2018-07-03T10:15:38.770Z,39.17
2018-07-03T10:16:38.918Z,38.47
2018-07-03T10:17:38.824Z,39.37
2018-07-03T10:18:38.735Z,39.76
2018-07-03T10:19:38.827Z,38.89
2018-07-03T10:20:38.733Z,40.06
2018-07-03T10:21:38.703Z,38.97
2018-07-03T10:22:38.714Z,39.37
2018-07-03T10:23:38.685Z,39.27
2018-07-03T10:24:38.689Z,39.47
2018-07-03T10:25:38.681Z,39.67
2018-07-03T10:26:38.665Z,39.17
2018-07-03T10:27:38.655Z,39.67
2018-07-03T10:28:38.626Z,40.44
2018-07-03T10:29:38.630Z,39.47
2018-07-03T10:30:38.602Z,39.25
2018-07-03T10:31:38.599Z,38.57
2018-07-03T10:32:38.654Z,39.86
2018-07-03T10:33:38.574Z,39.67
2018-07-03T10:34:38.560Z,39.57
2018-07-03T10:35:38.550Z,39.67
2018-07-03T10:36:38.537Z,39.45
2018-07-03T10:37:38.549Z,40.05
2018-07-03T10:38:38.556Z,38.87
2018-07-03T10:39:38.512Z,39.35
2018-07-03T10:40:38.493Z,39.75
2018-07-03T10:41:38.499Z,39.45
2018-07-03T10:42:38.493Z,39.84
2018-07-03T10:43:38.478Z,38.37
2018-07-03T10:44:38.450Z,37.86
2018-07-03T10:45:38.448Z,38.75
2018-07-03T10:46:38.428Z,39.67
2018-07-03T10:47:38.437Z,38.06
2018-07-03T10:48:38.406Z,37.06
2018-07-03T10:49:38.395Z,38.67
2018-07-03T10:50:38.395Z,39.45
2018-07-03T10:51:38.376Z,38.75
2018-07-03T10:52:38.385Z,39.05
2018-07-03T10:53:38.355Z,38.95
2018-07-03T10:54:38.495Z,38.65
2018-07-03T10:55:38.332Z,37.56
2018-07-03T10:56:38.318Z,36.87
2018-07-03T10:57:38.334Z,36.17
2018-07-03T10:58:38.420Z,36.96
2018-07-03T10:59:38.334Z,36.96
2018-07-03T11:00:38.276Z,36.96
2018-07-03T11:01:38.277Z,37.86
2018-07-03T11:02:38.274Z,38.56
2018-07-03T11:03:38.242Z,38.95
2018-07-03T11:04:38.244Z,38.85
2018-07-03T11:05:38.275Z,37.76
2018-07-03T11:06:38.211Z,37.76
2018-07-03T11:07:38.220Z,38.95
2018-07-03T11:08:38.187Z,38.75
2018-07-03T11:09:38.190Z,38.85
2018-07-03T11:10:38.168Z,38.85
2018-07-03T11:11:38.170Z,37.26
2018-07-03T11:12:38.169Z,38.06
2018-07-03T11:13:38.136Z,37.76
2018-07-03T11:14:38.123Z,38.85
2018-07-03T11:15:38.115Z,39.35
2018-07-03T11:16:38.179Z,38.95
2018-07-03T11:17:38.110Z,39.25
2018-07-03T11:18:38.084Z,39.05
2018-07-03T11:19:38.136Z,38.75
2018-07-03T11:20:38.058Z,38.65
2018-07-03T11:21:38.059Z,39.86
2018-07-03T11:22:38.058Z,39.45
2018-07-03T11:23:38.024Z,37.96
2018-07-03T11:24:38.018Z,39.15
2018-07-03T11:25:38.003Z,38.85
2018-07-03T11:26:38.030Z,38.95
2018-07-03T11:27:38.012Z,38.95
2018-07-03T11:28:37.970Z,38.65
2018-07-03T11:29:37.959Z,38.95
2018-07-03T11:30:37.951Z,38.85
2018-07-03T11:31:37.937Z,38.97
2018-07-03T11:32:37.946Z,39.27
2018-07-03T11:33:37.964Z,38.95
2018-07-03T11:34:37.905Z,39.35
2018-07-03T11:35:37.892Z,39.27
2018-07-03T11:36:37.883Z,38.75
2018-07-03T11:37:37.916Z,38.77
2018-07-03T11:38:37.870Z,38.67
2018-07-03T11:39:37.862Z,39.27
2018-07-03T11:40:37.840Z,39.07
2018-07-03T11:41:37.831Z,39.05
2018-07-03T11:42:37.838Z,38.65
2018-07-03T11:43:37.806Z,38.37
2018-07-03T11:44:37.797Z,38.75
2018-07-03T11:45:37.803Z,39.37
2018-07-03T11:46:37.826Z,39.27
2018-07-03T11:47:37.786Z,38.97
2018-07-03T11:48:37.753Z,38.75
2018-07-03T11:49:37.744Z,38.75
2018-07-03T11:50:37.731Z,38.77
2018-07-03T11:51:37.738Z,38.95
2018-07-03T11:52:37.729Z,38.75
2018-07-03T11:53:37.741Z,38.67
2018-07-03T11:54:37.687Z,38.97
2018-07-03T11:55:37.676Z,38.97
2018-07-03T11:56:37.665Z,39.15
2018-07-03T11:57:37.668Z,38.87
2018-07-03T11:58:37.663Z,39.54
2018-07-03T11:59:37.632Z,39.37
2018-07-03T12:00:37.620Z,38.75
2018-07-03T12:01:37.628Z,38.75
2018-07-03T12:02:37.602Z,39.07
2018-07-03T12:03:37.628Z,39.45
2018-07-03T12:04:37.580Z,39.45
2018-07-03T12:05:37.568Z,39.25
2018-07-03T12:06:37.553Z,39.35
2018-07-03T12:07:37.547Z,38.77
2018-07-03T12:08:37.556Z,39.86
2018-07-03T12:09:37.554Z,39.75
2018-07-03T12:10:37.513Z,39.37
2018-07-03T12:11:37.501Z,39.37
2018-07-03T12:12:37.491Z,38.57
2018-07-03T12:13:37.500Z,38.37
2018-07-03T12:14:37.468Z,37.48
2018-07-03T12:15:37.469Z,37.98
2018-07-03T12:16:37.447Z,37.77
2018-07-03T12:17:37.438Z,38.07
2018-07-03T12:18:37.444Z,38.07
2018-07-03T12:19:37.430Z,38.57
2018-07-03T12:20:37.403Z,38.77
2018-07-03T12:21:37.407Z,38.87
2018-07-03T12:22:37.381Z,38.87
2018-07-03T12:23:37.390Z,38.67
2018-07-03T12:24:37.363Z,38.97
2018-07-03T12:25:37.350Z,39.17
2018-07-03T12:26:37.338Z,38.87
2018-07-03T12:27:37.343Z,38.67
2018-07-03T12:28:37.341Z,39.35
2018-07-03T12:29:37.306Z,39.27
2018-07-03T12:30:37.295Z,38.67
2018-07-03T12:31:37.290Z,38.87
2018-07-03T12:32:37.273Z,38.87
2018-07-03T12:33:37.317Z,38.77
2018-07-03T12:34:37.251Z,39.17
2018-07-03T12:35:37.242Z,39.07
2018-07-03T12:36:37.255Z,39.05
2018-07-03T12:37:37.219Z,39.27
2018-07-03T12:38:37.232Z,38.85
2018-07-03T12:39:37.198Z,38.95
2018-07-03T12:40:37.213Z,39.25
2018-07-03T12:41:37.182Z,39.15
2018-07-03T12:42:37.165Z,39.54
2018-07-03T12:43:37.177Z,38.97
2018-07-03T12:44:37.143Z,38.77
2018-07-03T12:45:37.133Z,38.85
2018-07-03T12:46:37.120Z,38.95
2018-07-03T12:47:37.109Z,38.95
2018-07-03T12:48:37.119Z,38.95
2018-07-03T12:49:37.105Z,38.95
2018-07-03T12:50:37.079Z,38.75
2018-07-03T12:51:37.065Z,38.95
2018-07-03T12:52:37.055Z,38.95